createdAt,value
2017-11-27T00:01:55.795Z,6.23
2017-11-27T00:04:24.238Z,6.33
2017-11-27T00:06:52.565Z,5.93
2017-11-27T00:09:20.128Z,7.30
2017-11-27T00:11:47.582Z,6.57
2017-11-27T00:14:15.412Z,7.10
2017-11-27T00:16:42.928Z,7.00
2017-11-27T00:19:10.405Z,6.73
2017-11-27T00:21:37.923Z,8.03
2017-11-27T00:24:05.643Z,6.70
2017-11-27T00:26:33.650Z,6.63
2017-11-27T00:29:01.098Z,7.03
2017-11-27T00:31:28.564Z,6.50
2017-11-27T00:33:56.137Z,7.47
2017-11-27T00:36:23.618Z,7.20
2017-11-27T00:38:51.078Z,6.73
2017-11-27T00:41:18.524Z,7.20
2017-11-27T00:43:45.991Z,6.73
2017-11-27T00:46:13.489Z,6.20
2017-11-27T00:48:40.938Z,7.00
2017-11-27T00:51:08.414Z,6.53
2017-11-27T00:53:35.873Z,6.90
2017-11-27T00:56:03.362Z,7.10
2017-11-27T00:58:30.826Z,6.90
2017-11-27T01:00:58.361Z,6.60
2017-11-27T01:03:25.825Z,6.70
2017-11-27T01:05:53.304Z,8.03
2017-11-27T01:08:20.888Z,7.03
2017-11-27T01:10:48.482Z,7.30
2017-11-27T01:13:15.956Z,7.30
2017-11-27T01:15:43.398Z,7.37
2017-11-27T01:18:11.009Z,6.77
2017-11-27T01:20:38.461Z,7.97
2017-11-27T01:23:05.929Z,7.43
2017-11-27T01:25:33.384Z,7.70
2017-11-27T01:28:00.844Z,8.03
2017-11-27T01:30:28.649Z,7.00
2017-11-27T01:32:56.137Z,8.07
2017-11-27T01:35:23.592Z,8.23
2017-11-27T01:37:51.134Z,7.03
2017-11-27T01:40:18.553Z,6.90
2017-11-27T01:42:47.809Z,7.07
2017-11-27T01:45:16.441Z,6.97
2017-11-27T01:47:43.955Z,6.70
2017-11-27T01:50:11.440Z,7.70
2017-11-27T01:52:39.345Z,7.10
2017-11-27T01:55:06.825Z,6.47
2017-11-27T01:57:34.331Z,7.40
2017-11-27T02:00:01.789Z,7.07
2017-11-27T02:02:29.234Z,7.00
2017-11-27T02:04:56.738Z,6.63
2017-11-27T02:07:24.184Z,6.93
2017-11-27T02:09:51.645Z,7.90
2017-11-27T02:12:19.138Z,6.63
2017-11-27T02:14:46.597Z,6.73
2017-11-27T02:17:14.040Z,7.40
2017-11-27T02:19:41.514Z,7.30
2017-11-27T02:22:08.973Z,6.83
2017-11-27T02:24:36.469Z,8.33
2017-11-27T02:27:03.945Z,7.15
2017-11-27T02:29:31.392Z,7.87
2017-11-27T02:31:58.858Z,6.77
2017-11-27T02:34:26.346Z,7.90
2017-11-27T02:36:55.780Z,7.07
2017-11-27T02:39:23.254Z,7.23
2017-11-27T02:41:50.709Z,8.17
2017-11-27T02:44:18.266Z,7.10
2017-11-27T02:46:45.804Z,7.67
2017-11-27T02:49:13.276Z,7.60
2017-11-27T02:51:40.717Z,6.70
2017-11-27T02:54:08.184Z,7.73
2017-11-27T02:56:37.318Z,7.13
2017-11-27T02:59:04.782Z,7.63
2017-11-27T03:01:32.334Z,8.03
2017-11-27T03:03:59.819Z,7.90
2017-11-27T03:06:27.509Z,7.00
2017-11-27T03:08:54.985Z,7.70
2017-11-27T03:11:22.451Z,7.77
2017-11-27T03:13:49.937Z,7.40
2017-11-27T03:16:17.372Z,7.33
2017-11-27T03:18:44.864Z,7.30
2017-11-27T03:21:12.335Z,7.20
2017-11-27T03:23:39.806Z,7.10
2017-11-27T03:26:07.286Z,7.87
2017-11-27T03:28:35.567Z,6.80
2017-11-27T03:31:03.135Z,7.20
2017-11-27T03:33:30.595Z,7.30
2017-11-27T03:35:58.071Z,6.90
2017-11-27T03:38:25.504Z,7.20
2017-11-27T03:40:52.965Z,7.50
2017-11-27T03:43:20.415Z,7.93
2017-11-27T03:45:47.973Z,7.67
2017-11-27T03:48:15.437Z,7.60
2017-11-27T03:50:42.895Z,7.27
2017-11-27T03:53:10.339Z,8.07
2017-11-27T03:55:37.828Z,7.83
2017-11-27T03:58:05.291Z,7.53
2017-11-27T04:00:35.650Z,8.57
2017-11-27T04:03:03.128Z,7.20
2017-11-27T04:05:30.611Z,7.30
2017-11-27T04:07:58.093Z,7.87
2017-11-27T04:10:25.580Z,7.53
2017-11-27T04:12:53.045Z,8.63
2017-11-27T04:15:20.500Z,7.17
2017-11-27T04:17:48.142Z,8.27
2017-11-27T04:20:15.873Z,7.63
2017-11-27T04:22:43.340Z,8.60
2017-11-27T04:25:10.825Z,8.77
2017-11-27T04:27:38.275Z,8.40
2017-11-27T04:30:05.820Z,7.80
2017-11-27T04:32:33.948Z,8.87
2017-11-27T04:35:01.441Z,8.03
2017-11-27T04:37:28.918Z,8.20
2017-11-27T04:39:56.372Z,8.50
2017-11-27T04:42:23.848Z,9.10
2017-11-27T04:44:51.302Z,9.30
2017-11-27T04:47:18.769Z,8.77
2017-11-27T04:49:46.240Z,8.67
2017-11-27T04:52:13.805Z,8.30
2017-11-27T04:54:41.256Z,8.60
2017-11-27T04:57:08.712Z,8.37
2017-11-27T04:59:36.191Z,9.40
2017-11-27T05:02:03.632Z,9.10
2017-11-27T05:04:31.475Z,8.50
2017-11-27T05:06:59.035Z,8.80
2017-11-27T05:09:26.505Z,8.60
2017-11-27T05:11:53.958Z,8.40
2017-11-27T05:14:21.433Z,9.60
2017-11-27T05:16:48.929Z,9.03
2017-11-27T05:19:16.424Z,8.17
2017-11-27T05:21:43.872Z,8.47
2017-11-27T05:24:11.325Z,8.60
2017-11-27T05:26:39.109Z,7.73
2017-11-27T05:29:06.600Z,8.37
2017-11-27T05:31:34.052Z,7.80
2017-11-27T05:34:01.505Z,8.57
2017-11-27T05:36:29.049Z,8.90
2017-11-27T05:38:56.504Z,7.60
2017-11-27T05:41:23.969Z,8.40
2017-11-27T05:43:51.476Z,8.23
2017-11-27T05:46:19.101Z,10.27
2017-11-27T05:48:46.585Z,12.60
2017-11-27T05:51:14.048Z,8.63
2017-11-27T05:53:41.513Z,8.80
2017-11-27T05:56:08.989Z,8.20
2017-11-27T05:58:36.449Z,8.90
2017-11-27T06:01:03.909Z,8.43
2017-11-27T06:03:31.356Z,8.83
2017-11-27T06:05:58.807Z,8.83
2017-11-27T06:08:26.305Z,8.40
2017-11-27T06:10:53.777Z,8.00
2017-11-27T06:13:21.248Z,9.20
2017-11-27T06:15:48.724Z,9.57
2017-11-27T06:18:16.190Z,9.20
2017-11-27T06:20:43.645Z,8.63
2017-11-27T06:23:11.135Z,8.40
2017-11-27T06:25:38.585Z,9.60
2017-11-27T06:28:06.045Z,8.73
2017-11-27T06:30:33.516Z,8.23
2017-11-27T06:33:00.964Z,8.63
2017-11-27T06:35:28.428Z,9.10
2017-11-27T06:37:55.873Z,8.70
2017-11-27T06:40:23.328Z,8.93
2017-11-27T06:42:50.949Z,8.67
2017-11-27T06:45:18.461Z,8.87
2017-11-27T06:47:45.904Z,8.67
2017-11-27T06:50:13.455Z,9.57
2017-11-27T06:52:41.075Z,9.53
2017-11-27T06:55:08.564Z,8.93
2017-11-27T06:57:36.033Z,8.10
2017-11-27T07:00:03.526Z,8.27
2017-11-27T07:02:31.210Z,8.37
2017-11-27T07:04:58.665Z,8.30
2017-11-27T07:07:26.128Z,8.87
2017-11-27T07:09:53.612Z,9.13
2017-11-27T07:12:21.053Z,8.27
2017-11-27T07:14:48.508Z,8.37
2017-11-27T07:17:16.013Z,8.10
2017-11-27T07:19:43.454Z,7.80
2017-11-27T07:22:11.100Z,8.13
2017-11-27T07:24:38.553Z,9.27
2017-11-27T07:27:06.016Z,8.03
2017-11-27T07:29:33.490Z,8.13
2017-11-27T07:32:00.939Z,8.80
2017-11-27T07:34:28.413Z,8.13
2017-11-27T07:36:55.882Z,9.37
2017-11-27T07:39:28.870Z,7.80
2017-11-27T07:41:56.350Z,8.93
2017-11-27T07:44:23.812Z,8.20
2017-11-27T07:46:51.272Z,7.67
2017-11-27T07:49:18.766Z,8.40
2017-11-27T07:51:46.248Z,7.37
2017-11-27T07:54:13.701Z,7.53
2017-11-27T07:56:41.181Z,8.30
2017-11-27T07:59:08.629Z,7.97
2017-11-27T08:01:36.093Z,7.17
2017-11-27T08:04:03.586Z,7.33
2017-11-27T08:06:31.145Z,7.50
2017-11-27T08:08:58.590Z,8.57
2017-11-27T08:11:26.077Z,8.13
2017-11-27T08:13:53.557Z,8.27
2017-11-27T08:16:21.008Z,7.73
2017-11-27T08:18:48.730Z,7.60
2017-11-27T08:21:16.510Z,7.80
2017-11-27T08:23:44.012Z,8.47
2017-11-27T08:26:11.520Z,7.50
2017-11-27T08:28:38.989Z,7.93
2017-11-27T08:31:06.452Z,7.30
2017-11-27T08:33:33.918Z,7.57
2017-11-27T08:36:01.373Z,8.37
2017-11-27T08:38:28.850Z,7.80
2017-11-27T08:40:56.354Z,7.37
2017-11-27T08:43:23.800Z,6.90
2017-11-27T08:45:51.338Z,6.57
2017-11-27T08:48:18.901Z,8.10
2017-11-27T08:50:46.365Z,7.27
2017-11-27T08:53:13.848Z,8.00
2017-11-27T08:55:41.328Z,7.90
2017-11-27T08:58:08.777Z,7.70
2017-11-27T09:00:36.242Z,7.23
2017-11-27T09:03:03.728Z,7.03
2017-11-27T09:05:31.262Z,6.60
2017-11-27T09:07:58.694Z,7.30
2017-11-27T09:10:26.149Z,7.40
2017-11-27T09:12:53.692Z,6.90
2017-11-27T09:15:21.230Z,7.10
2017-11-27T09:17:48.712Z,7.90
2017-11-27T09:20:16.181Z,8.20
2017-11-27T09:22:43.810Z,7.40
2017-11-27T09:25:11.294Z,6.97
2017-11-27T09:27:38.740Z,6.97
2017-11-27T09:30:06.237Z,7.13
2017-11-27T09:32:33.712Z,7.47
2017-11-27T09:35:01.161Z,7.07
2017-11-27T09:37:28.641Z,7.77
2017-11-27T09:39:56.118Z,8.40
2017-11-27T09:42:23.588Z,6.53
2017-11-27T09:44:51.101Z,7.17
2017-11-27T09:47:18.573Z,7.70
2017-11-27T09:49:46.044Z,7.40
2017-11-27T09:52:13.519Z,6.77
2017-11-27T09:54:41.033Z,6.97
2017-11-27T09:57:08.514Z,7.33
2017-11-27T09:59:35.972Z,7.60
2017-11-27T10:02:03.426Z,6.60
2017-11-27T10:04:30.897Z,6.40
2017-11-27T10:06:58.509Z,6.63
2017-11-27T10:09:25.952Z,6.47
2017-11-27T10:11:53.429Z,5.97
2017-11-27T10:14:20.881Z,6.20
2017-11-27T10:16:48.346Z,5.73
2017-11-27T10:19:15.809Z,5.10
2017-11-27T10:21:43.249Z,7.03
2017-11-27T10:24:10.714Z,6.20
2017-11-27T10:26:39.767Z,5.70
2017-11-27T10:29:07.237Z,5.83
2017-11-27T10:31:34.697Z,5.90
2017-11-27T10:34:02.210Z,6.20
2017-11-27T10:36:29.993Z,5.93
2017-11-27T10:38:57.490Z,5.60
2017-11-27T10:41:24.953Z,6.03
2017-11-27T10:43:52.413Z,5.70
2017-11-27T10:46:20.349Z,4.60
2017-11-27T10:48:48.252Z,5.23
2017-11-27T10:51:15.903Z,4.73
2017-11-27T10:53:43.448Z,4.70
2017-11-27T10:56:10.911Z,4.80
2017-11-27T10:58:38.563Z,3.97
2017-11-27T11:01:06.089Z,4.27
2017-11-27T11:03:33.556Z,3.53
2017-11-27T11:06:01.014Z,2.97
2017-11-27T11:08:28.561Z,4.67
2017-11-27T11:10:56.125Z,3.20
2017-11-27T11:13:23.690Z,3.70
2017-11-27T11:15:51.173Z,3.90
2017-11-27T11:18:18.635Z,3.57
2017-11-27T11:20:46.140Z,4.40
2017-11-27T11:23:13.587Z,3.20
2017-11-27T11:25:41.039Z,3.53
2017-11-27T11:28:08.496Z,3.67
2017-11-27T11:30:36.012Z,4.30
2017-11-27T11:33:03.473Z,3.20
2017-11-27T11:35:30.972Z,4.00
2017-11-27T11:37:58.426Z,3.83
2017-11-27T11:40:26.573Z,5.17
2017-11-27T11:42:54.027Z,4.00
2017-11-27T11:45:21.490Z,4.70
2017-11-27T11:47:48.986Z,4.30
2017-11-27T11:50:16.506Z,4.40
2017-11-27T11:52:44.013Z,4.53
2017-11-27T11:55:14.320Z,4.43
2017-11-27T11:57:41.827Z,3.77
2017-11-27T12:00:09.294Z,4.10
2017-11-27T12:02:36.766Z,3.77
2017-11-27T12:05:04.241Z,3.60
2017-11-27T12:07:31.700Z,4.10
2017-11-27T12:09:59.165Z,4.37
2017-11-27T12:12:26.817Z,3.20
2017-11-27T12:14:54.304Z,3.80
2017-11-27T12:17:21.784Z,4.30
2017-11-27T12:19:49.322Z,3.80
2017-11-27T12:22:16.977Z,4.27
2017-11-27T12:24:55.981Z,4.07
2017-11-27T12:27:23.460Z,4.00
2017-11-27T12:29:50.915Z,4.40
2017-11-27T12:32:18.650Z,4.83
2017-11-27T12:34:46.112Z,3.67
2017-11-27T12:37:13.597Z,4.53
2017-11-27T12:39:41.081Z,4.57
2017-11-27T12:42:08.555Z,3.83
2017-11-27T12:44:36.945Z,4.60
2017-11-27T12:47:04.400Z,4.63
2017-11-27T12:49:31.836Z,4.77
2017-11-27T12:51:59.322Z,4.70
2017-11-27T12:54:26.980Z,4.13
2017-11-27T12:56:55.296Z,4.80
2017-11-27T12:59:27.725Z,4.23
2017-11-27T13:01:55.178Z,3.83
2017-11-27T13:04:22.660Z,3.77
2017-11-27T13:06:50.211Z,3.80
2017-11-27T13:09:17.799Z,3.93
2017-11-27T13:11:45.237Z,3.70
2017-11-27T13:14:12.696Z,3.70
2017-11-27T13:16:40.188Z,3.50
2017-11-27T13:19:07.639Z,3.30
2017-11-27T13:21:35.096Z,3.47
2017-11-27T13:24:02.548Z,3.43
2017-11-27T13:26:30.017Z,3.80
2017-11-27T13:28:57.591Z,3.63
2017-11-27T13:31:25.053Z,3.30
2017-11-27T13:33:52.508Z,3.40
2017-11-27T13:36:20.019Z,3.03
2017-11-27T13:38:47.574Z,4.27
2017-11-27T13:41:15.046Z,3.40
2017-11-27T13:43:42.528Z,3.90
2017-11-27T13:46:09.999Z,4.00
2017-11-27T13:48:37.455Z,4.47
2017-11-27T13:51:04.949Z,4.60
2017-11-27T13:53:32.401Z,3.10
2017-11-27T13:55:59.883Z,3.80
2017-11-27T13:58:27.325Z,3.70
2017-11-27T14:00:54.788Z,3.60
2017-11-27T14:03:22.276Z,3.67
2017-11-27T14:05:49.738Z,3.00
2017-11-27T14:08:17.279Z,3.13
2017-11-27T14:10:44.743Z,2.97
2017-11-27T14:13:12.257Z,2.80
2017-11-27T14:15:39.767Z,3.27
2017-11-27T14:18:07.233Z,2.90
2017-11-27T14:20:34.817Z,3.00
2017-11-27T14:23:02.411Z,2.67
2017-11-27T14:25:29.866Z,3.87
2017-11-27T14:27:57.428Z,2.67
2017-11-27T14:30:25.153Z,3.47
2017-11-27T14:32:52.614Z,3.57
2017-11-27T14:35:20.088Z,3.73
2017-11-27T14:37:47.528Z,3.67
2017-11-27T14:40:15.148Z,2.90
2017-11-27T14:42:42.706Z,3.50
2017-11-27T14:45:10.161Z,3.17
2017-11-27T14:47:37.627Z,2.97
2017-11-27T14:50:05.086Z,3.00
2017-11-27T14:52:32.854Z,3.73
2017-11-27T14:55:00.318Z,2.50
2017-11-27T14:57:27.812Z,2.90
2017-11-27T14:59:55.269Z,3.33
2017-11-27T15:02:22.766Z,3.10
2017-11-27T15:04:50.251Z,3.93
2017-11-27T15:07:17.762Z,2.73
2017-11-27T15:09:45.254Z,3.27
2017-11-27T15:12:12.759Z,3.13
2017-11-27T15:14:40.242Z,3.17
2017-11-27T15:17:07.736Z,2.70
2017-11-27T15:19:35.209Z,3.33
2017-11-27T15:22:02.709Z,3.37
2017-11-27T15:24:31.582Z,3.27
2017-11-27T15:26:59.065Z,4.20
2017-11-27T15:29:26.553Z,3.00
2017-11-27T15:31:54.061Z,3.17
2017-11-27T15:34:21.610Z,4.23
2017-11-27T15:36:51.308Z,3.20
2017-11-27T15:39:18.917Z,4.03
2017-11-27T15:41:46.426Z,3.57
2017-11-27T15:44:14.177Z,3.40
2017-11-27T15:46:41.686Z,3.80
2017-11-27T15:49:09.232Z,3.43
2017-11-27T15:51:36.739Z,3.00
2017-11-27T15:54:04.332Z,3.07
2017-11-27T15:56:31.803Z,3.13
2017-11-27T15:58:59.295Z,3.53
2017-11-27T16:01:26.805Z,4.00
2017-11-27T16:03:54.346Z,3.40
2017-11-27T16:06:21.881Z,3.03
2017-11-27T16:08:49.343Z,3.93
2017-11-27T16:11:16.855Z,3.20
2017-11-27T16:13:44.838Z,3.27
2017-11-27T16:16:12.313Z,5.13
2017-11-27T16:18:39.771Z,4.27
2017-11-27T16:21:07.262Z,3.53
2017-11-27T16:23:34.745Z,3.57
2017-11-27T16:26:02.831Z,3.80
2017-11-27T16:28:30.397Z,3.80
2017-11-27T16:30:57.917Z,4.20
2017-11-27T16:33:25.402Z,4.07
2017-11-27T16:35:52.920Z,3.63
2017-11-27T16:38:20.391Z,4.27
2017-11-27T16:40:47.857Z,4.70
2017-11-27T16:43:15.356Z,4.17
2017-11-27T16:45:42.829Z,4.47
2017-11-27T16:48:11.801Z,4.80
2017-11-27T16:50:39.329Z,3.80
2017-11-27T16:53:06.877Z,3.53
2017-11-27T16:55:34.357Z,3.10
2017-11-27T16:58:01.861Z,2.60
2017-11-27T17:00:30.634Z,3.73
2017-11-27T17:02:58.243Z,3.50
2017-11-27T17:05:25.718Z,3.63
2017-11-27T17:07:53.202Z,3.30
2017-11-27T17:10:20.702Z,3.40
2017-11-27T17:12:48.536Z,4.10
2017-11-27T17:15:16.237Z,3.37
2017-11-27T17:17:43.736Z,4.33
2017-11-27T17:20:11.228Z,3.87
2017-11-27T17:22:38.689Z,5.10
2017-11-27T17:25:06.157Z,3.57
2017-11-27T17:27:33.620Z,3.03
2017-11-27T17:30:02.109Z,3.00
2017-11-27T17:32:29.605Z,3.83
2017-11-27T17:34:57.137Z,4.57
2017-11-27T17:37:24.652Z,4.50
2017-11-27T17:39:52.151Z,4.17
2017-11-27T17:42:19.948Z,4.43
2017-11-27T17:44:47.505Z,3.47
2017-11-27T17:47:14.998Z,5.23
2017-11-27T17:49:42.504Z,4.20
2017-11-27T17:52:10.277Z,4.50
2017-11-27T17:54:37.749Z,4.77
2017-11-27T17:57:05.359Z,3.53
2017-11-27T17:59:33.020Z,4.10
2017-11-27T18:02:00.509Z,4.67
2017-11-27T18:04:27.988Z,4.80
2017-11-27T18:06:55.574Z,3.70
2017-11-27T18:09:23.380Z,4.43
2017-11-27T18:11:50.851Z,4.47
2017-11-27T18:14:18.504Z,4.70
2017-11-27T18:16:45.978Z,4.57
2017-11-27T18:19:13.444Z,4.57
2017-11-27T18:21:40.899Z,5.23
2017-11-27T18:24:08.390Z,4.10
2017-11-27T18:26:36.850Z,3.97
2017-11-27T18:29:04.367Z,4.73
2017-11-27T18:31:31.825Z,5.40
2017-11-27T18:33:59.329Z,5.10
2017-11-27T18:36:26.959Z,5.90
2017-11-27T18:38:54.730Z,5.50
2017-11-27T18:41:22.241Z,5.10
2017-11-27T18:43:49.696Z,5.77
2017-11-27T18:46:17.437Z,6.35
2017-11-27T18:48:45.009Z,5.10
2017-11-27T18:51:12.461Z,5.30
2017-11-27T18:53:39.932Z,4.70
2017-11-27T18:56:07.458Z,4.83
2017-11-27T18:58:36.164Z,5.05
2017-11-27T19:01:03.701Z,5.37
2017-11-27T19:03:31.799Z,5.93
2017-11-27T19:05:59.314Z,6.60
2017-11-27T19:08:26.886Z,6.12
2017-11-27T19:10:54.933Z,5.97
2017-11-27T19:13:22.507Z,6.70
2017-11-27T19:15:50.038Z,6.40
2017-11-27T19:18:17.513Z,6.57
2017-11-27T19:20:45.156Z,6.65
2017-11-27T19:23:12.890Z,6.28
2017-11-27T19:25:40.446Z,6.80
2017-11-27T19:28:08.019Z,6.80
2017-11-27T19:30:35.557Z,7.20
2017-11-27T19:33:03.247Z,6.15
2017-11-27T19:35:30.807Z,6.80
2017-11-27T19:37:58.310Z,6.50
2017-11-27T19:40:25.900Z,6.95
2017-11-27T19:42:53.468Z,6.00
2017-11-27T19:45:21.045Z,6.03
2017-11-27T19:47:48.574Z,5.70
2017-11-27T19:50:18.032Z,6.80
2017-11-27T19:52:45.565Z,6.62
2017-11-27T19:55:13.054Z,6.45
2017-11-27T19:57:40.609Z,6.30
2017-11-27T20:00:08.123Z,7.50
2017-11-27T20:02:36.922Z,6.82
2017-11-27T20:05:04.639Z,6.32
2017-11-27T20:07:32.284Z,6.07
2017-11-27T20:09:59.780Z,6.35
2017-11-27T20:12:27.448Z,6.22
2017-11-27T20:14:54.997Z,6.43
2017-11-27T20:17:22.496Z,6.68
2017-11-27T20:19:49.994Z,7.07
2017-11-27T20:22:19.187Z,6.37
2017-11-27T20:24:52.955Z,6.90
2017-11-27T20:27:20.514Z,6.93
2017-11-27T20:29:48.008Z,6.90
2017-11-27T20:32:15.724Z,7.45
2017-11-27T20:34:43.197Z,7.45
2017-11-27T20:37:10.753Z,7.05
2017-11-27T20:39:38.253Z,6.05
2017-11-27T20:42:05.744Z,6.03
2017-11-27T20:44:37.037Z,6.60
2017-11-27T20:47:04.639Z,5.93
2017-11-27T20:49:32.192Z,7.03
2017-11-27T20:51:59.762Z,6.33
2017-11-27T20:54:28.302Z,6.00
2017-11-27T20:56:55.970Z,5.93
2017-11-27T20:59:23.467Z,6.13
2017-11-27T21:01:51.194Z,5.70
2017-11-27T21:04:18.776Z,4.83
2017-11-27T21:06:46.390Z,5.43
2017-11-27T21:09:13.884Z,4.78
2017-11-27T21:11:41.380Z,4.33
2017-11-27T21:14:10.704Z,4.70
2017-11-27T21:16:38.248Z,4.40
2017-11-27T21:21:38.985Z,3.53
2017-11-27T21:24:06.529Z,3.75
2017-11-27T21:26:35.698Z,3.75
2017-11-27T21:29:03.166Z,3.58
2017-11-27T21:31:30.703Z,3.87
2017-11-27T21:33:58.237Z,3.85
2017-11-27T21:36:26.419Z,3.37
2017-11-27T21:38:53.914Z,4.40
2017-11-27T21:41:21.408Z,4.00
2017-11-27T21:43:48.926Z,3.90
2017-11-27T21:46:16.472Z,3.63
2017-11-27T21:48:43.952Z,3.77
2017-11-27T21:51:11.417Z,3.53
2017-11-27T21:53:38.908Z,3.90
2017-11-27T21:56:06.397Z,4.70
2017-11-27T21:58:36.784Z,5.23
2017-11-27T22:01:04.312Z,5.20
2017-11-27T22:03:31.781Z,4.95
2017-11-27T22:05:59.237Z,5.50
2017-11-27T22:08:26.735Z,5.00
2017-11-27T22:10:54.354Z,5.20
2017-11-27T22:13:21.818Z,4.80
2017-11-27T22:15:49.313Z,5.43
2017-11-27T22:18:16.821Z,5.60
2017-11-27T22:20:44.320Z,5.50
2017-11-27T22:23:11.797Z,5.35
2017-11-27T22:25:39.269Z,5.47
2017-11-27T22:28:06.797Z,6.00
2017-11-27T22:30:34.264Z,4.93
2017-11-27T22:33:01.795Z,5.60
2017-11-27T22:35:29.297Z,5.20
2017-11-27T22:37:56.834Z,5.60
2017-11-27T22:40:24.361Z,5.37
2017-11-27T22:42:51.802Z,4.70
2017-11-27T22:45:19.471Z,4.83
2017-11-27T22:47:46.940Z,5.00
2017-11-27T22:50:15.490Z,5.20
2017-11-27T22:52:43.013Z,4.03
2017-11-27T22:55:10.469Z,3.60
2017-11-27T22:57:38.005Z,3.53
2017-11-27T23:00:05.533Z,3.50
2017-11-27T23:02:34.515Z,3.57
2017-11-27T23:05:02.045Z,3.20
2017-11-27T23:07:29.610Z,4.00
2017-11-27T23:09:57.294Z,3.80
2017-11-27T23:12:24.843Z,3.90
2017-11-27T23:14:52.327Z,3.30
2017-11-27T23:17:19.880Z,4.03
2017-11-27T23:19:47.361Z,4.23
2017-11-27T23:22:14.825Z,3.80
2017-11-27T23:24:42.281Z,4.13
2017-11-27T23:27:09.757Z,3.40
2017-11-27T23:29:37.275Z,3.60
2017-11-27T23:32:04.780Z,4.00
2017-11-27T23:34:34.490Z,3.80
2017-11-27T23:37:02.040Z,3.60
2017-11-27T23:39:29.706Z,3.80
2017-11-27T23:41:57.308Z,3.73
2017-11-27T23:44:26.154Z,4.30
2017-11-27T23:46:53.712Z,4.73
2017-11-27T23:49:21.165Z,3.83
2017-11-27T23:51:48.737Z,3.73
2017-11-27T23:54:16.185Z,3.40
2017-11-27T23:56:43.672Z,3.50
2017-11-27T23:59:11.186Z,3.10
